WEATHER DATA

YESTERDAY
Time Temp. Dewp. Hum. Bar.
00:08 17.5 11.8 69 1009.2
00:18 17.4 11.7 69 1009.2
00:28 17.2 11.5 69 1009.3
00:38 17 11.3 69 1009.3
00:48 17 11.3 69 1009.3
00:58 16.8 11.1 69 1009.3
01:08 16.7 11 69 1009.3
01:19 16.5 10.8 69 1009.3
01:28 16.4 10.7 69 1009.1
01:37 16.3 10.6 69 1009.1
01:48 16.1 10.6 70 1009
01:59 16 10.5 70 1008.9
02:09 15.9 10.4 70 1008.9
02:18 15.8 10.3 70 1008.9
02:29 15.7 10.3 70 1008.9
02:39 15.6 10.2 70 1008.9
02:49 15.5 10.1 70 1008.9
02:59 15.5 10.1 70 1008.8
03:09 15.4 10 70 1008.8
03:19 15.4 10.2 71 1008.8
03:29 15.3 10.1 71 1008.7
03:40 15.2 10 71 1008.7
03:48 15.1 9.9 71 1008.6
03:59 15 9.8 71 1008.6
04:09 14.9 9.7 71 1008.4
04:20 14.8 9.8 72 1008.4
04:29 14.7 9.7 72 1008.4
04:39 14.6 9.6 72 1008.3
04:50 14.5 9.5 72 1008.4
05:00 14.5 9.5 72 1008.3
05:10 14.4 9.4 72 1008.3
05:20 14.3 9.5 73 1008.2
05:30 14.3 9.5 73 1008.2
05:40 14.2 9.4 73 1008.2
05:50 14.1 9.3 73 1008.1
06:00 14 9.2 73 1008
06:10 13.9 9.1 73 1007.9
06:20 13.9 9.3 74 1007.9
06:30 13.9 9.3 74 1008
06:41 13.9 9.3 74 1007.9
06:50 13.9 9.3 74 1007.9
07:00 14 9.6 75 1007.8
07:11 14 9.6 75 1007.9
07:21 14.2 9.8 75 1007.9
07:30 14.3 10.1 76 1007.8
07:41 14.4 10.2 76 1007.7
07:51 14.6 10.6 77 1007.5
08:01 14.8 10.8 77 1007.5
08:11 15 11 77 1007.5
08:21 15.2 11.4 78 1007.5
08:31 15.5 11.7 78 1007.5
08:41 15.8 12 78 1007.5
08:51 16.2 12.4 78 1007.5
09:01 16.5 12.7 78 1007.5
09:11 16.8 12.9 78 1007.5
09:21 17.1 13.2 78 1007.4
09:32 17.5 13.6 78 1007.4
09:40 17.8 13.9 78 1007.4
09:51 18.1 14.2 78 1007.3
10:02 18.5 14.6 78 1007.2
10:12 18.9 15 78 1007.1
10:22 19.2 15.3 78 1007
10:31 19.7 15.8 78 1006.9
10:42 20.1 16.1 78 1006.8
10:51 20.5 16.3 77 1006.7
11:02 21 16.8 77 1006.6
11:12 21.3 17.1 77 1006.6
11:22 21.6 17.4 77 1006.6
11:31 22.2 18 77 1006.4
11:42 22.9 18.7 77 1006.4
11:53 23.2 18.9 77 1006.3
12:02 23.5 19.2 77 1006.2
12:12 23.9 19.6 77 1006.1
12:23 24.3 20 77 1005.9
12:32 24.5 20 76 1005.9
12:42 24.6 20.1 76 1005.8
12:52 24.8 20.3 76 1005.8
13:03 24.8 20.3 76 1005.7
13:13 25.2 20.7 76 1005.6
13:23 25.3 20.8 76 1005.6
13:33 25.3 20.8 76 1005.7
13:43 25.4 20.6 75 1005.6
13:53 25.5 20.7 75 1005.5
14:03 25.6 20.8 75 1005.3
14:14 25.7 20.9 75 1005.2
14:23 26.1 21.3 75 1005.1
14:33 26.4 21.6 75 1005
14:43 26.5 21.7 75 1004.9
14:54 26.6 21.8 75 1004.7
15:04 26.8 21.8 74 1004.6
15:13 26.9 21.9 74 1004.5
15:24 27.2 22.2 74 1004.4
15:34 27 22 74 1004.3
15:43 26.8 21.8 74 1004.2
15:54 27 22 74 1004
16:04 27.1 22.1 74 1003.8
16:14 27.1 22.1 74 1003.8
16:24 27.2 21.9 73 1003.8
16:35 27.3 22 73 1003.6
16:44 27.5 22.2 73 1003.5
16:54 27.5 22.2 73 1003.5
17:04 27.2 21.9 73 1003.5
17:15 26.8 21.6 73 1003.6
17:25 26.5 21.3 73 1003.6
17:34 26.3 20.8 72 1003.7
17:45 26.1 20.7 72 1003.6
17:55 25.9 20.5 72 1003.7
18:04 25.9 20.5 72 1003.7
18:15 25.7 20.3 72 1003.7
18:25 25.8 20.4 72 1003.6
18:35 25.8 20.4 72 1003.6
18:45 26.2 20.8 72 1003.5
18:56 28.8 23.2 72 1003.4
19:05 30.3 24.7 72 1003.5
19:15 29.1 23.5 72 1003.4
19:25 28.2 22.7 72 1003.4
19:36 27.5 21.8 71 1003.3
19:44 27 21.3 71 1003.3
19:55 26.5 20.8 71 1003.2
20:06 26 20.3 71 1003.2
20:16 25.7 20 71 1003.3
20:26 25.3 19.7 71 1003.3
20:36 25 19.2 70 1003.4
20:46 24.7 18.9 70 1003.5
20:56 24.4 18.6 70 1003.6
21:06 24.2 18.4 70 1003.7
21:17 24 18.2 70 1003.8
21:26 23.8 18 70 1004.4
21:36 23.2 17.4 70 1004.8
21:46 22.6 16.9 70 1004.7
21:57 22.2 16.2 69 1004.7
22:06 21.8 15.9 69 1004.7
22:16 21.4 15.5 69 1004.8
22:27 21.2 15.3 69 1004.9
22:37 20.8 14.9 69 1005
22:46 20.6 14.7 69 1005
22:57 20.2 14.3 69 1005.1
23:07 19.9 14 69 1005.1
23:17 19.7 13.9 69 1005.2
23:27 19.5 13.7 69 1005.1
23:38 19.4 13.6 69 1005
23:48 19.2 13.6 70 1005
23:57 19 13.4 70 1005.1

DAY STATISTIC

2021-07-30
TEMPERATURE
AVERAGE
20.7
HIGH
30.3
19:05
LOW
13.9
06:10
PRESSURE
AVERAGE
1006.2
HIGH
1009.3
00:28
LOW
1003.2
19:55
DEWPOINT
AVERAGE
15.7
HIGH
24.7
19:05
LOW
9.1
06:10
HUMIDITY
AVERAGE
73
HIGH
78
08:21
LOW
69
00:08
TEMPERATURE (°C)
LOW
13.9
HIGH
30.3
AVERAGE
20.7
PRESSURE (hpa)
LOW
1003.2
HIGH
1009.3
AVERAGE
1006.2
DEVICE